Time;durP1;ratioP1;P1;durP2;ratioP2;P2;SDS_P1;SDS_P2;PMS_P1;PMS_P2;Temp;Humidity;BMP_temperature;BMP_pressure;BME280_temperature;BME280_humidity;BME280_pressure;Samples;Min_cycle;Max_cycle;Signal;HPM_P1;HPM_P2
2021/05/05 00:01:25;;;;;;;1.48;1.10;;;;;;;25.55;35.43;94583.56;4988785;28;20033;-72
2021/05/05 00:03:51;;;;;;;2.55;1.75;;;;;;;25.53;35.70;94575.16;4989854;28;20050;-72
2021/05/05 00:06:16;;;;;;;1.40;1.10;;;;;;;25.51;35.66;94571.47;4983530;28;20519;-72
2021/05/05 00:08:42;;;;;;;2.15;1.45;;;;;;;25.52;35.16;94567.50;4978973;28;20023;-72
2021/05/05 00:11:07;;;;;;;2.67;1.40;;;;;;;25.52;35.25;94573.69;4969984;28;20034;-72
2021/05/05 00:13:33;;;;;;;1.95;1.40;;;;;;;25.51;36.01;94576.97;4984391;28;20034;-72
2021/05/05 00:16:01;;;;;;;2.30;1.40;;;;;;;25.50;35.26;94570.00;4983846;28;20098;-71
2021/05/05 00:18:27;;;;;;;3.33;1.40;;;;;;;25.51;35.31;94566.03;4977906;28;20118;-72
2021/05/05 00:20:53;;;;;;;1.88;1.10;;;;;;;25.51;35.89;94564.00;4983258;28;20085;-72
2021/05/05 00:23:19;;;;;;;1.90;1.30;;;;;;;25.50;35.38;94559.06;4989661;28;20800;-72
2021/05/05 00:25:44;;;;;;;2.60;1.38;;;;;;;25.51;35.92;94560.56;4989198;28;20038;-72
2021/05/05 00:28:09;;;;;;;1.90;1.15;;;;;;;25.52;35.59;94562.03;4989390;28;20026;-72
2021/05/05 00:30:35;;;;;;;2.30;1.00;;;;;;;25.50;35.47;94561.81;4989461;28;20053;-72
2021/05/05 00:33:00;;;;;;;1.80;1.27;;;;;;;25.45;35.90;94551.75;4989263;28;20520;-72
2021/05/05 00:35:26;;;;;;;2.40;1.38;;;;;;;25.51;35.43;94549.63;4989424;28;20023;-72
2021/05/05 00:37:51;;;;;;;3.13;1.50;;;;;;;25.49;35.56;94552.88;4987479;28;20481;-72
2021/05/05 00:40:17;;;;;;;1.80;1.35;;;;;;;25.46;35.35;94553.22;4968310;28;20038;-72
2021/05/05 00:42:42;;;;;;;2.42;1.30;;;;;;;25.48;35.88;94545.22;4979782;28;20038;-72
2021/05/05 00:45:12;;;;;;;1.95;1.08;;;;;;;25.49;35.58;94541.94;4989118;28;20112;-72
2021/05/05 00:47:38;;;;;;;1.92;1.30;;;;;;;25.47;36.25;94539.03;4989016;28;20041;-72
2021/05/05 00:50:05;;;;;;;2.20;1.30;;;;;;;25.47;35.85;94539.03;4982746;28;20038;-72
2021/05/05 00:52:31;;;;;;;1.48;1.20;;;;;;;25.48;36.14;94531.53;4978417;28;20027;-72
2021/05/05 00:54:56;;;;;;;1.50;1.13;;;;;;;25.48;35.44;94534.28;4977924;28;20041;-72
2021/05/05 00:57:22;;;;;;;1.52;1.13;;;;;;;25.47;35.73;94533.56;4988919;28;20053;-72
2021/05/05 00:59:47;;;;;;;1.88;1.20;;;;;;;25.49;35.55;94535.75;4988718;28;20027;-72
2021/05/05 01:02:13;;;;;;;1.73;1.40;;;;;;;25.50;35.53;94545.41;4980438;28;20783;-72
2021/05/05 01:04:38;;;;;;;1.73;1.38;;;;;;;25.47;36.26;94528.09;4969546;28;20031;-72
2021/05/05 01:07:04;;;;;;;1.45;1.20;;;;;;;25.46;35.96;94526.59;4981595;28;20418;-72
2021/05/05 01:09:29;;;;;;;1.50;1.20;;;;;;;25.45;36.07;94525.13;4988691;28;20441;-72
2021/05/05 01:11:55;;;;;;;2.83;1.30;;;;;;;25.44;36.40;94517.47;4986519;28;20031;-72
2021/05/05 01:14:21;;;;;;;2.15;1.30;;;;;;;25.42;35.93;94525.47;4975280;28;20418;-72
2021/05/05 01:16:47;;;;;;;3.60;1.27;;;;;;;25.47;36.42;94527.31;4968926;28;20494;-71
2021/05/05 01:19:12;;;;;;;1.45;1.20;;;;;;;25.45;36.13;94518.94;4986940;28;20092;-73
2021/05/05 01:21:38;;;;;;;1.45;1.30;;;;;;;25.43;35.62;94535.88;4988665;28;20037;-72
2021/05/05 01:24:05;;;;;;;1.35;1.05;;;;;;;25.46;36.39;94525.88;4988329;28;20445;-72
2021/05/05 01:26:30;;;;;;;2.03;1.30;;;;;;;25.45;36.02;94513.47;4988346;28;20049;-72
2021/05/05 01:28:58;;;;;;;2.38;1.55;;;;;;;25.44;36.51;94506.53;4987288;28;20030;-72
2021/05/05 01:31:23;;;;;;;1.58;1.10;;;;;;;25.43;36.29;94505.06;4989627;28;20061;-72
2021/05/05 01:33:49;;;;;;;1.50;1.17;;;;;;;25.44;36.28;94512.00;4989326;28;20022;-72
2021/05/05 01:36:15;;;;;;;2.55;1.33;;;;;;;25.40;35.88;94517.09;4989660;28;20026;-72
2021/05/05 01:38:41;;;;;;;2.47;1.40;;;;;;;25.43;35.76;94516.75;4988403;28;20022;-72
2021/05/05 01:41:06;;;;;;;1.45;1.13;;;;;;;25.41;36.28;94521.25;4989331;28;20042;-72
2021/05/05 01:43:32;;;;;;;1.90;1.17;;;;;;;25.43;36.20;94499.63;4988885;28;20030;-71
2021/05/05 01:45:57;;;;;;;1.90;1.30;;;;;;;25.43;36.64;94513.28;4989213;28;20048;-72
2021/05/05 01:48:23;;;;;;;2.30;1.30;;;;;;;25.38;36.42;94508.66;4989360;28;20026;-72
2021/05/05 01:50:48;;;;;;;2.10;1.40;;;;;;;25.34;35.85;94491.88;4988849;28;20018;-72
2021/05/05 01:53:17;;;;;;;2.35;1.10;;;;;;;25.22;36.31;94485.22;4987932;28;20573;-72
2021/05/05 01:55:43;;;;;;;1.77;1.10;;;;;;;25.42;35.91;94514.53;4989175;28;20023;-73
2021/05/05 01:58:09;;;;;;;1.73;1.20;;;;;;;25.23;35.86;94489.44;4987603;28;20026;-72
2021/05/05 02:00:34;;;;;;;2.75;1.50;;;;;;;25.40;36.62;94506.16;4987638;28;20502;-72
2021/05/05 02:03:00;;;;;;;2.45;1.63;;;;;;;25.40;36.37;94517.09;4986734;28;20054;-72
2021/05/05 02:05:25;;;;;;;1.50;1.20;;;;;;;25.38;36.04;94497.72;4988944;28;20419;-72
2021/05/05 02:07:51;;;;;;;2.40;1.20;;;;;;;25.39;36.66;94507.41;4988283;28;20027;-72
2021/05/05 02:10:17;;;;;;;2.45;1.23;;;;;;;25.39;36.11;94504.66;4988901;28;20152;-72
2021/05/05 02:12:43;;;;;;;2.47;1.13;;;;;;;25.38;36.33;94503.19;4988938;28;20112;-72
2021/05/05 02:15:10;;;;;;;2.95;1.35;;;;;;;25.38;36.11;94492.25;4971134;28;20033;-72
2021/05/05 02:17:36;;;;;;;1.50;1.10;;;;;;;25.39;36.83;94485.53;4988850;28;20037;-72
2021/05/05 02:20:10;;;;;;;1.83;1.30;;;;;;;25.39;36.39;94488.28;4988450;28;20022;-73
2021/05/05 02:22:36;;;;;;;1.55;1.20;;;;;;;25.38;36.11;94486.78;4987735;28;20026;-72
2021/05/05 02:25:02;;;;;;;2.40;1.35;;;;;;;25.36;36.41;94486.59;4987436;28;20027;-72
2021/05/05 02:27:27;;;;;;;1.92;1.23;;;;;;;25.40;36.73;94495.22;4989014;28;20022;-72
2021/05/05 02:29:53;;;;;;;1.70;1.33;;;;;;;25.38;36.29;94487.53;4988901;28;20034;-72
2021/05/05 02:32:20;;;;;;;1.88;1.20;;;;;;;25.38;36.15;94487.53;4987515;28;20034;-72
2021/05/05 02:34:45;;;;;;;2.45;1.20;;;;;;;25.41;36.88;94480.25;4988624;28;20045;-72
2021/05/05 02:37:11;;;;;;;2.17;1.20;;;;;;;25.39;36.53;94471.88;4988311;28;20494;-72
2021/05/05 02:39:40;;;;;;;1.92;1.50;;;;;;;25.37;36.79;94479.88;4988642;28;20125;-72
2021/05/05 02:42:09;;;;;;;2.15;1.30;;;;;;;25.38;36.97;94492.25;4987431;28;20029;-72
2021/05/05 02:44:35;;;;;;;1.58;1.10;;;;;;;25.38;36.71;94492.25;4988550;28;20045;-72
2021/05/05 02:47:02;;;;;;;1.92;1.23;;;;;;;25.10;36.17;94445.78;4988438;28;20026;-72
2021/05/05 02:49:29;;;;;;;1.55;1.30;;;;;;;25.38;36.98;94490.28;4988561;28;20505;-73
2021/05/05 02:51:54;;;;;;;1.52;1.30;;;;;;;25.40;36.26;94489.75;4988609;28;20061;-72
2021/05/05 02:54:20;;;;;;;1.35;1.10;;;;;;;25.37;36.51;94485.34;4988705;28;20027;-72
2021/05/05 02:56:45;;;;;;;1.50;1.20;;;;;;;25.36;36.35;94489.34;4988647;28;20490;-72
2021/05/05 02:59:10;;;;;;;1.60;1.42;;;;;;;25.12;36.53;94454.16;4988268;28;20019;-72
2021/05/05 03:01:36;;;;;;;2.47;1.23;;;;;;;25.34;36.84;94475.47;4987013;28;20482;-72
2021/05/05 03:04:02;;;;;;;1.27;1.00;;;;;;;25.35;36.86;94477.69;4971721;28;20043;-72
2021/05/05 03:06:29;;;;;;;1.60;1.30;;;;;;;25.31;36.68;94475.81;4983756;28;20038;-72
2021/05/05 03:08:55;;;;;;;1.75;1.40;;;;;;;25.36;36.71;94481.13;4988650;28;20038;-72
2021/05/05 03:11:20;;;;;;;2.70;1.50;;;;;;;25.36;36.30;94481.88;4988361;28;20042;-72
2021/05/05 03:13:46;;;;;;;2.17;1.42;;;;;;;25.37;36.39;94480.59;4988429;28;20490;-72
2021/05/05 03:16:11;;;;;;;2.65;1.20;;;;;;;25.36;36.38;94484.59;4988373;28;20490;-72
2021/05/05 03:18:37;;;;;;;1.85;1.40;;;;;;;25.36;36.76;94479.13;4989457;28;20031;-72
2021/05/05 03:21:02;;;;;;;1.98;1.20;;;;;;;25.39;36.87;94488.28;4991559;28;20037;-72
2021/05/05 03:23:28;;;;;;;2.45;1.38;;;;;;;25.39;37.00;94475.31;4991799;28;20077;-72
2021/05/05 03:25:53;;;;;;;2.13;1.33;;;;;;;25.38;36.88;94464.94;4991903;28;20422;-72
2021/05/05 03:28:19;;;;;;;1.90;1.33;;;;;;;25.38;36.51;94481.31;4991758;28;20019;-72
2021/05/05 03:30:44;;;;;;;1.92;1.40;;;;;;;25.12;36.80;94459.63;4990388;28;20022;-72
2021/05/05 03:33:10;;;;;;;1.80;1.50;;;;;;;25.35;36.49;94485.13;4989976;28;20037;-72
2021/05/05 03:35:35;;;;;;;2.33;1.23;;;;;;;25.28;36.97;94482.38;4991396;28;20433;-72
2021/05/05 03:38:01;;;;;;;1.63;1.30;;;;;;;25.36;36.96;94478.41;4985351;28;20050;-72
2021/05/05 03:40:28;;;;;;;2.22;1.42;;;;;;;25.35;37.00;94487.88;4981622;28;20022;-72
2021/05/05 03:42:54;;;;;;;2.25;1.52;;;;;;;25.36;36.50;94478.41;4991699;28;20026;-72
2021/05/05 03:45:19;;;;;;;1.92;1.33;;;;;;;25.36;36.56;94481.88;4991270;28;20037;-72
2021/05/05 03:47:44;;;;;;;2.15;1.45;;;;;;;25.16;36.98;94462.75;4990932;28;20034;-72
2021/05/05 03:50:10;;;;;;;2.45;1.70;;;;;;;25.36;37.08;94478.41;4981087;28;20041;-72
2021/05/05 03:52:36;;;;;;;1.80;1.30;;;;;;;25.36;36.88;94489.34;4972272;28;20150;-72
2021/05/05 03:55:01;;;;;;;1.63;1.33;;;;;;;25.32;36.79;94483.50;4985876;28;20030;-72
2021/05/05 03:57:27;;;;;;;1.90;1.60;;;;;;;25.35;36.84;94493.34;4988372;28;20498;-72
2021/05/05 03:59:52;;;;;;;1.95;1.30;;;;;;;25.37;37.22;94496.28;4976659;28;20042;-72
2021/05/05 04:02:18;;;;;;;2.28;1.40;;;;;;;25.36;36.83;94506.47;4979964;28;20030;-72
2021/05/05 04:04:43;;;;;;;1.58;1.23;;;;;;;25.37;36.67;94485.34;4975081;28;20038;-72
2021/05/05 04:07:09;;;;;;;1.90;1.30;;;;;;;25.37;37.35;94512.69;4990018;28;20092;-72
2021/05/05 04:09:35;;;;;;;1.60;1.35;;;;;;;25.21;36.76;94478.28;4984263;28;20046;-74
2021/05/05 04:12:02;;;;;;;2.10;1.65;;;;;;;25.44;36.71;94512.75;4984363;28;20073;-72
2021/05/05 04:14:27;;;;;;;2.63;1.88;;;;;;;25.36;37.02;94511.22;4977571;28;20509;-79
2021/05/05 04:16:52;;;;;;;3.22;1.75;;;;;;;24.99;37.03;94478.81;4975808;28;20027;-77
2021/05/05 04:19:18;;;;;;;2.13;1.92;;;;;;;24.86;37.28;94448.06;4954463;28;20030;-77
2021/05/05 04:21:43;;;;;;;2.17;1.95;;;;;;;25.21;37.07;94511.06;4974358;28;20030;-76
2021/05/05 04:24:09;;;;;;;3.40;1.83;;;;;;;25.19;37.55;94505.41;4986104;28;20031;-74
2021/05/05 04:26:35;;;;;;;3.75;2.25;;;;;;;25.14;37.67;94511.75;4981548;28;20085;-74
2021/05/05 04:29:00;;;;;;;3.63;2.58;;;;;;;25.20;37.40;94504.16;4973056;28;20039;-75
2021/05/05 04:31:26;;;;;;;3.47;2.35;;;;;;;25.15;37.68;94507.75;4983478;28;20038;-76
2021/05/05 04:33:51;;;;;;;4.68;2.20;;;;;;;25.16;37.35;94503.75;4976381;28;20022;-74
2021/05/05 04:36:17;;;;;;;5.20;2.50;;;;;;;25.21;38.10;94513.81;4973922;28;20038;-71
2021/05/05 04:38:42;;;;;;;4.95;2.60;;;;;;;25.28;37.72;94515.16;4986470;28;20559;-73
2021/05/05 04:41:08;;;;;;;3.45;2.50;;;;;;;25.31;37.41;94503.88;4987271;28;20462;-74
2021/05/05 04:43:33;;;;;;;5.13;2.40;;;;;;;25.38;37.28;94514.13;4977263;28;20772;-76
2021/05/05 04:46:00;;;;;;;4.47;2.70;;;;;;;25.44;37.60;94509.25;4987826;28;20093;-74
2021/05/05 04:48:25;;;;;;;5.75;2.53;;;;;;;25.54;37.08;94510.25;5004070;28;20029;-76
2021/05/05 04:50:51;;;;;;;3.78;2.40;;;;;;;25.57;37.07;94503.72;4994676;28;20048;-75
2021/05/05 04:53:16;;;;;;;7.38;2.97;;;;;;;25.59;36.82;94495.72;5002928;28;20093;-76
2021/05/05 04:55:42;;;;;;;4.72;2.80;;;;;;;25.79;36.92;94514.13;5011047;28;20033;-79
2021/05/05 04:58:07;;;;;;;3.78;2.40;;;;;;;25.86;36.80;94517.66;5000940;28;20045;-77
2021/05/05 05:00:34;;;;;;;3.78;2.85;;;;;;;25.92;37.10;94507.28;4978086;28;20031;-74
2021/05/05 05:02:59;;;;;;;4.82;3.40;;;;;;;25.90;36.93;94509.09;4973742;28;20068;-73
2021/05/05 05:05:25;;;;;;;4.30;2.80;;;;;;;26.04;36.89;94513.94;4979633;28;20044;-75
2021/05/05 05:07:50;;;;;;;3.92;2.90;;;;;;;26.03;36.26;94512.47;4988819;28;20026;-75
2021/05/05 05:10:16;;;;;;;4.57;2.95;;;;;;;26.08;36.68;94514.31;4977215;28;20041;-75
2021/05/05 05:12:41;;;;;;;4.07;3.13;;;;;;;26.18;36.53;94512.53;4983676;28;20034;-72
2021/05/05 05:15:07;;;;;;;5.78;3.50;;;;;;;26.19;36.25;94513.25;4982510;28;20033;-72
2021/05/05 05:17:33;;;;;;;4.20;3.10;;;;;;;26.18;36.63;94522.75;4984841;28;20084;-74
2021/05/05 05:19:58;;;;;;;4.63;3.38;;;;;;;26.00;35.93;94475.22;4977157;28;20022;-80
2021/05/05 05:22:24;;;;;;;3.38;2.97;;;;;;;26.31;36.45;94504.25;4958304;28;20030;-75
2021/05/05 05:24:50;;;;;;;5.22;3.20;;;;;;;26.36;36.49;94506.09;4975857;28;20042;-76
2021/05/05 05:27:16;;;;;;;4.13;3.10;;;;;;;26.45;36.24;94502.84;4980562;28;20026;-83
2021/05/05 05:29:41;;;;;;;4.82;3.25;;;;;;;26.32;37.22;94483.78;4989162;28;20050;-77
2021/05/05 05:32:07;;;;;;;7.43;3.45;;;;;;;26.66;37.33;94517.16;4981852;28;20022;-78
2021/05/05 05:34:32;;;;;;;4.80;3.70;;;;;;;26.74;36.93;94513.19;4985291;28;20736;-75
2021/05/05 05:36:58;;;;;;;7.18;3.83;;;;;;;26.90;39.12;94512.69;4963536;28;20046;-77
2021/05/05 05:39:23;;;;;;;5.22;3.80;;;;;;;26.99;36.69;94517.66;4987183;28;20035;-78
2021/05/05 05:41:49;;;;;;;9.35;5.15;;;;;;;26.88;38.54;94511.75;4979031;28;20031;-76
2021/05/05 05:44:14;;;;;;;4.85;3.70;;;;;;;26.85;37.60;94519.06;4974278;28;20075;-76
2021/05/05 05:46:40;;;;;;;5.60;3.70;;;;;;;26.94;37.13;94528.81;4976285;28;20060;-78
2021/05/05 05:49:06;;;;;;;6.13;3.13;;;;;;;27.02;36.40;94527.53;4971573;28;20034;-75
2021/05/05 05:51:32;;;;;;;5.97;4.28;;;;;;;26.99;37.09;94528.63;4925703;28;20125;-73
2021/05/05 05:53:57;;;;;;;5.63;3.50;;;;;;;27.05;37.12;94539.41;4974675;28;20058;-73
2021/05/05 05:56:23;;;;;;;5.53;4.22;;;;;;;26.78;36.32;94525.22;4973117;28;20156;-73
2021/05/05 05:58:48;;;;;;;7.38;4.93;;;;;;;27.03;35.90;94539.97;4967517;28;20533;-71
2021/05/05 06:01:14;;;;;;;6.72;4.63;;;;;;;26.94;36.17;94542.50;4971295;28;20468;-70
2021/05/05 06:03:39;;;;;;;6.78;4.90;;;;;;;26.95;35.07;94555.66;4967693;28;20047;-70
2021/05/05 06:06:05;;;;;;;7.00;4.75;;;;;;;26.94;35.24;94543.22;4971285;28;20096;-71
2021/05/05 06:08:32;;;;;;;6.80;4.90;;;;;;;26.90;35.27;94537.34;4969597;28;20052;-71
2021/05/05 06:10:58;;;;;;;10.88;5.03;;;;;;;26.82;35.31;94547.53;4973375;28;20109;-72
2021/05/05 06:13:24;;;;;;;10.45;4.75;;;;;;;26.83;35.35;94532.56;4967731;28;20050;-72
2021/05/05 06:15:50;;;;;;;5.10;4.40;;;;;;;26.54;35.07;94505.78;4972207;28;20608;-74
2021/05/05 06:18:15;;;;;;;7.25;4.75;;;;;;;26.69;34.91;94533.25;4975914;28;20447;-76
2021/05/05 06:20:41;;;;;;;6.75;5.28;;;;;;;26.69;34.64;94527.03;4981962;28;20084;-77
2021/05/05 06:23:06;;;;;;;5.95;4.45;;;;;;;26.71;35.05;94535.44;4969834;28;20501;-79
2021/05/05 06:25:32;;;;;;;5.28;4.35;;;;;;;26.67;34.92;94535.09;4981625;28;20018;-73
2021/05/05 06:27:57;;;;;;;7.18;5.35;;;;;;;26.84;34.76;94523.06;4997537;28;20030;-75
2021/05/05 06:30:23;;;;;;;6.00;4.40;;;;;;;26.79;34.90;94517.75;4999405;28;20041;-73
2021/05/05 06:32:48;;;;;;;5.80;4.53;;;;;;;26.64;35.14;94517.00;4979011;28;20030;-73
2021/05/05 06:35:14;;;;;;;7.22;4.47;;;;;;;26.74;34.31;94517.91;4976349;28;20022;-71
2021/05/05 06:37:39;;;;;;;6.97;4.20;;;;;;;26.77;34.20;94507.34;4978494;28;20046;-75
2021/05/05 06:40:05;;;;;;;7.03;4.00;;;;;;;26.56;34.96;94516.22;4978770;28;20569;-72
2021/05/05 06:42:31;;;;;;;6.85;4.10;;;;;;;26.74;34.39;94521.41;4977748;28;20069;-72
2021/05/05 06:44:57;;;;;;;7.95;3.95;;;;;;;26.95;34.40;94528.25;4981246;28;20460;-72
2021/05/05 06:47:22;;;;;;;5.35;3.97;;;;;;;26.82;34.31;94513.94;4977988;28;20069;-74
2021/05/05 06:49:48;;;;;;;6.82;3.70;;;;;;;26.44;34.82;94485.69;4980357;28;20037;-74
2021/05/05 06:52:13;;;;;;;6.30;4.00;;;;;;;26.77;34.69;94507.34;5001538;28;20038;-78
2021/05/05 06:54:39;;;;;;;6.15;3.53;;;;;;;26.57;34.71;94514.94;5003594;28;20032;-73
2021/05/05 06:57:05;;;;;;;6.13;3.50;;;;;;;26.38;34.97;94481.63;4983390;28;20030;-75
2021/05/05 06:59:30;;;;;;;7.88;3.25;;;;;;;26.45;35.03;94497.38;4982913;28;20037;-77
2021/05/05 07:01:56;;;;;;;5.55;3.50;;;;;;;26.52;35.01;94507.63;4984825;28;20026;-76
2021/05/05 07:04:21;;;;;;;7.25;3.80;;;;;;;26.48;34.33;94483.31;4982657;28;20105;-74
2021/05/05 07:06:47;;;;;;;4.00;3.45;;;;;;;26.61;34.63;94483.19;4982504;28;20455;-74
2021/05/05 07:09:12;;;;;;;6.00;4.38;;;;;;;26.39;34.77;94433.81;4981784;28;20370;-73
2021/05/05 07:11:39;;;;;;;6.80;3.50;;;;;;;26.48;34.74;94490.81;4981978;28;20026;-75
2021/05/05 07:14:05;;;;;;;4.38;3.03;;;;;;;26.64;34.42;94481.38;4981847;28;20022;-74
2021/05/05 07:16:31;;;;;;;5.82;3.20;;;;;;;26.43;34.52;94450.63;4982854;28;20070;-73
2021/05/05 07:18:56;;;;;;;4.80;3.20;;;;;;;26.66;34.76;94478.81;4995575;28;20038;-73
2021/05/05 07:21:22;;;;;;;7.40;3.33;;;;;;;26.83;34.53;94483.25;4975090;28;20085;-71
2021/05/05 07:23:48;;;;;;;6.38;3.10;;;;;;;26.80;34.61;94481.59;4970367;28;20588;-71
2021/05/05 07:26:14;;;;;;;5.72;3.10;;;;;;;27.02;34.31;94494.63;4976931;28;20027;-71
2021/05/05 07:28:40;;;;;;;6.10;3.00;;;;;;;26.97;34.29;94498.28;4974792;28;20406;-73
2021/05/05 07:31:06;;;;;;;6.35;2.97;;;;;;;26.99;35.03;94490.25;4979483;28;20023;-74
2021/05/05 07:33:32;;;;;;;5.50;2.80;;;;;;;27.05;34.56;94477.09;4972336;28;20025;-74
2021/05/05 07:35:58;;;;;;;7.28;3.30;;;;;;;26.79;35.00;94471.91;4982109;28;20562;-71
2021/05/05 07:48:49;;;;;;;4.68;3.05;;;;;;;26.89;34.40;94467.41;4996309;28;20026;-75
2021/05/05 07:51:15;;;;;;;4.60;2.92;;;;;;;27.14;33.48;94467.63;4988536;28;20074;-68
2021/05/05 07:53:41;;;;;;;6.10;2.97;;;;;;;26.88;33.72;94419.31;4993186;28;20046;-68
2021/05/05 07:56:06;;;;;;;5.32;3.00;;;;;;;27.09;33.72;94461.03;4991736;28;20031;-73
2021/05/05 07:58:32;;;;;;;3.85;3.10;;;;;;;26.95;33.61;94462.47;5008618;28;20033;-73
2021/05/05 08:00:57;;;;;;;5.35;3.03;;;;;;;26.80;34.06;94473.38;4990293;28;20030;-71
2021/05/05 08:03:22;;;;;;;5.80;3.22;;;;;;;26.94;33.53;94477.44;4995764;28;20057;-71
2021/05/05 08:05:48;;;;;;;7.70;4.38;;;;;;;27.01;33.29;94474.00;4988198;28;20038;-73
2021/05/05 08:08:13;;;;;;;7.68;2.92;;;;;;;26.99;33.27;94479.28;4993297;28;20037;-73
2021/05/05 08:10:39;;;;;;;6.85;3.42;;;;;;;26.64;33.28;94432.06;4988182;28;20033;-74
2021/05/05 08:13:05;;;;;;;6.38;3.47;;;;;;;26.97;33.19;94476.34;4993695;28;20482;-71
2021/05/05 08:15:33;;;;;;;5.38;3.08;;;;;;;26.74;33.96;94457.66;4984866;28;20028;-71
2021/05/05 08:18:02;;;;;;;4.93;3.22;;;;;;;26.72;33.52;94449.25;4996276;28;20473;-71
2021/05/05 08:20:27;;;;;;;5.85;2.85;;;;;;;26.71;33.55;94447.78;4984793;28;20469;-71
2021/05/05 08:22:53;;;;;;;8.70;3.00;;;;;;;26.75;33.72;94437.19;4993816;28;20022;-71
2021/05/05 08:25:18;;;;;;;7.32;2.78;;;;;;;26.81;33.08;94441.94;4990040;28;20034;-71
2021/05/05 08:27:44;;;;;;;6.43;2.90;;;;;;;26.93;33.00;94432.13;4993608;28;20026;-71
2021/05/05 08:30:12;;;;;;;5.95;2.92;;;;;;;27.11;33.17;94431.06;4989915;28;20517;-76
2021/05/05 08:32:37;;;;;;;6.07;3.08;;;;;;;27.29;32.34;94424.47;4983928;28;20568;-76
2021/05/05 08:35:03;;;;;;;5.80;2.85;;;;;;;27.18;32.64;94430.34;4959766;28;20049;-79
2021/05/05 08:37:29;;;;;;;6.35;2.67;;;;;;;26.55;32.51;94369.59;4990326;28;20085;-78
2021/05/05 08:39:54;;;;;;;4.38;2.92;;;;;;;27.17;32.35;94423.38;4982803;28;20027;-75
2021/05/05 08:42:20;;;;;;;5.90;2.90;;;;;;;27.25;32.12;94426.88;4987617;28;20108;-74
2021/05/05 08:44:46;;;;;;;4.35;2.70;;;;;;;27.02;32.36;94434.34;4988582;28;20037;-75
2021/05/05 08:47:12;;;;;;;5.47;2.88;;;;;;;27.40;32.10;94435.81;4991601;28;20110;-78
2021/05/05 08:49:38;;;;;;;6.35;3.00;;;;;;;27.00;32.54;94414.97;5012141;28;20026;-77
2021/05/05 08:52:03;;;;;;;4.13;2.55;;;;;;;27.22;31.99;94425.22;4992247;28;20077;-78
2021/05/05 08:54:29;;;;;;;5.10;2.78;;;;;;;27.54;31.92;94439.84;4989861;28;20398;-77
2021/05/05 08:56:54;;;;;;;4.15;2.40;;;;;;;27.18;32.43;94430.34;4988989;28;20030;-75
2021/05/05 08:59:20;;;;;;;5.55;2.75;;;;;;;27.14;32.21;94434.72;4991452;28;20046;-73
2021/05/05 09:01:45;;;;;;;6.40;2.70;;;;;;;27.50;32.08;94433.28;4970733;28;20860;-75
2021/05/05 09:04:11;;;;;;;4.18;2.67;;;;;;;27.36;31.66;94412.78;4989905;28;20046;-77
2021/05/05 09:06:53;;;;;;;5.15;2.53;;;;;;;27.54;32.11;94428.16;4985760;28;20426;-77
2021/05/05 09:09:39;;;;;;;6.72;2.92;;;;;;;27.63;31.71;94431.06;4989619;28;20026;-75
2021/05/05 09:12:16;;;;;;;5.40;2.80;;;;;;;27.54;31.49;94422.66;4992320;28;20084;-76
2021/05/05 09:15:13;;;;;;;6.75;2.60;;;;;;;27.40;31.88;94424.84;4991287;28;20104;-75
2021/05/05 09:17:47;;;;;;;5.90;2.72;;;;;;;27.23;32.46;94426.66;4986321;28;20041;-75
2021/05/05 09:20:13;;;;;;;3.97;3.00;;;;;;;27.11;32.41;94425.56;4979883;28;20506;-76
2021/05/05 09:22:52;;;;;;;4.32;3.08;;;;;;;27.05;32.29;94419.53;4988056;28;20041;-75
2021/05/05 09:25:22;;;;;;;6.00;3.15;;;;;;;27.38;32.15;94421.19;4981213;28;20041;-74
2021/05/05 09:28:12;;;;;;;7.68;2.92;;;;;;;27.57;31.82;94421.56;4987796;28;20041;-79
2021/05/05 09:30:39;;;;;;;6.32;2.92;;;;;;;27.59;31.86;94419.00;4981603;28;20117;-76
2021/05/05 09:33:05;;;;;;;4.82;2.80;;;;;;;27.44;32.01;94424.47;4974946;28;20037;-81
2021/05/05 09:35:39;;;;;;;6.63;3.00;;;;;;;27.40;31.79;94413.16;4984097;28;20030;-74
2021/05/05 09:38:07;;;;;;;4.13;2.80;;;;;;;27.43;31.97;94414.78;5003593;28;20084;-75
2021/05/05 09:40:32;;;;;;;4.75;2.72;;;;;;;27.41;31.90;94414.59;5009141;28;20045;-72
2021/05/05 09:42:58;;;;;;;7.45;3.28;;;;;;;27.43;31.82;94406.56;5001454;28;20034;-73
2021/05/05 09:45:31;;;;;;;7.97;3.30;;;;;;;27.42;31.63;94399.63;4984507;28;20115;-77
2021/05/05 09:47:58;;;;;;;7.28;3.08;;;;;;;27.51;31.78;94401.81;4974780;28;20057;-71
2021/05/05 09:50:33;;;;;;;8.15;3.47;;;;;;;27.46;31.83;94394.50;5007614;28;20045;-71
2021/05/05 09:53:27;;;;;;;6.65;3.70;;;;;;;27.34;32.21;94407.84;4998124;28;20512;-71
2021/05/05 09:55:58;;;;;;;6.65;3.50;;;;;;;27.40;32.11;94402.19;4987421;28;20026;-72
2021/05/05 09:58:32;;;;;;;3.85;2.95;;;;;;;27.15;31.78;94360.16;5000818;28;20038;-73
2021/05/05 10:01:07;;;;;;;4.57;2.60;;;;;;;27.31;32.18;94389.03;4999648;28;20038;-72
2021/05/05 10:03:52;;;;;;;7.32;2.95;;;;;;;27.32;32.21;94390.47;5001529;28;20049;-72
2021/05/05 10:06:34;;;;;;;4.72;2.47;;;;;;;27.52;31.78;94381.31;4991420;28;20030;-72
2021/05/05 10:09:05;;;;;;;3.72;2.53;;;;;;;27.37;32.09;94386.81;4976310;28;20026;-70
2021/05/05 10:11:42;;;;;;;4.85;2.80;;;;;;;27.13;32.25;94390.13;4990609;28;20066;-70
2021/05/05 10:14:09;;;;;;;4.78;2.65;;;;;;;26.91;32.04;94379.88;4976870;28;20050;-72
2021/05/05 10:16:39;;;;;;;5.32;2.85;;;;;;;26.84;32.33;94375.09;4989480;28;20794;-70
2021/05/05 10:19:06;;;;;;;3.15;2.50;;;;;;;26.63;32.30;94359.38;4999439;28;20057;-70
2021/05/05 10:21:32;;;;;;;4.47;2.53;;;;;;;26.55;33.20;94375.09;4987455;28;20085;-70
2021/05/05 10:23:59;;;;;;;4.95;2.92;;;;;;;26.44;32.96;94367.19;4999355;28;20022;-70
2021/05/05 10:26:26;;;;;;;5.57;2.55;;;;;;;26.35;33.35;94367.72;4986519;28;20092;-71
2021/05/05 10:28:51;;;;;;;7.28;3.28;;;;;;;26.57;33.03;94367.03;5001241;28;20097;-71
2021/05/05 10:31:22;;;;;;;5.18;2.70;;;;;;;26.34;33.57;94338.91;4989991;28;20133;-70
2021/05/05 10:33:49;;;;;;;4.60;2.80;;;;;;;26.46;33.66;94373.59;4992987;28;20041;-71
2021/05/05 10:36:40;;;;;;;4.50;2.67;;;;;;;26.28;33.38;94355.47;4957622;28;20038;-70
2021/05/05 10:39:12;;;;;;;5.82;2.60;;;;;;;26.21;33.28;94358.19;4983165;28;20113;-71
2021/05/05 10:41:40;;;;;;;7.03;2.92;;;;;;;26.04;33.68;94366.16;4980322;28;20027;-71
2021/05/05 10:44:06;;;;;;;7.35;3.00;;;;;;;26.20;33.83;94361.44;4980646;28;20557;-70
2021/05/05 10:46:36;;;;;;;4.22;2.80;;;;;;;26.22;33.67;94359.66;4976528;28;20037;-71
2021/05/05 10:49:12;;;;;;;4.57;2.72;;;;;;;26.24;34.27;94348.88;4989338;28;20045;-70
2021/05/05 10:51:47;;;;;;;5.40;3.05;;;;;;;26.20;34.36;94351.22;4980134;28;20026;-72
2021/05/05 10:54:14;;;;;;;3.70;2.75;;;;;;;26.33;33.82;94359.31;4989627;28;20117;-71
2021/05/05 10:56:39;;;;;;;4.13;2.80;;;;;;;26.28;33.41;94357.50;4978334;28;20022;-72
2021/05/05 10:59:09;;;;;;;5.13;2.88;;;;;;;26.29;33.43;94335.06;4989300;28;20121;-72
2021/05/05 11:01:39;;;;;;;4.20;3.15;;;;;;;26.22;33.58;94331.53;4974251;28;20043;-72
2021/05/05 11:04:05;;;;;;;4.13;2.88;;;;;;;26.05;34.03;94307.41;4970166;28;20498;-69
2021/05/05 11:06:34;;;;;;;6.07;3.10;;;;;;;26.11;33.62;94329.84;4973946;28;20539;-70
2021/05/05 11:09:06;;;;;;;5.43;2.75;;;;;;;26.09;34.07;94334.44;4991417;28;20454;-70
2021/05/05 11:11:35;;;;;;;6.60;3.00;;;;;;;26.07;33.51;94332.22;4991244;28;20046;-70
2021/05/05 11:14:01;;;;;;;4.13;2.53;;;;;;;26.23;33.08;94338.47;4990974;28;20096;-70
2021/05/05 11:16:46;;;;;;;4.63;2.53;;;;;;;26.14;32.96;94326.03;4990793;28;20336;-70
2021/05/05 11:19:12;;;;;;;4.63;2.72;;;;;;;26.10;33.42;94324.91;4990087;28;20042;-70
2021/05/05 11:21:38;;;;;;;5.35;2.15;;;;;;;26.04;32.84;94327.84;4973349;28;20145;-72
2021/05/05 11:24:04;;;;;;;6.25;3.00;;;;;;;26.11;32.82;94321.66;4990201;28;20077;-69
2021/05/05 11:26:32;;;;;;;5.80;2.40;;;;;;;26.25;32.81;94319.47;4972983;28;20030;-70
2021/05/05 11:29:06;;;;;;;3.35;2.10;;;;;;;26.31;32.57;94323.56;4989904;28;20034;-72
2021/05/05 11:31:44;;;;;;;5.10;2.60;;;;;;;26.24;32.76;94307.81;4973360;28;20037;-72
2021/05/05 11:34:10;;;;;;;6.88;3.28;;;;;;;26.32;32.25;94314.06;4971023;28;20051;-71
2021/05/05 11:36:35;;;;;;;5.18;2.40;;;;;;;26.31;32.63;94312.63;4971304;28;20023;-72
2021/05/05 11:39:03;;;;;;;3.47;2.28;;;;;;;26.36;32.28;94308.97;4969926;28;20050;-72
2021/05/05 11:41:29;;;;;;;3.63;2.35;;;;;;;26.33;32.45;94299.09;4971255;28;20030;-72
2021/05/05 11:43:55;;;;;;;5.78;1.95;;;;;;;26.24;32.71;94302.34;4987449;28;20034;-71